createdAt,value
2019-01-27T00:04:05.004Z,13.2
2019-01-27T00:14:04.214Z,12.9
2019-01-27T00:24:03.424Z,13
2019-01-27T00:34:02.631Z,12.7
2019-01-27T00:44:01.839Z,12.4
2019-01-27T00:54:01.050Z,12.4
2019-01-27T01:04:00.255Z,12.6
2019-01-27T01:13:59.465Z,12.4
2019-01-27T01:23:58.670Z,12.9
2019-01-27T01:33:57.879Z,13.1
2019-01-27T01:43:57.088Z,12.5
2019-01-27T01:53:56.301Z,12.7
2019-01-27T02:03:55.502Z,12.7
2019-01-27T02:13:54.710Z,13.2
2019-01-27T02:23:53.917Z,12.7
2019-01-27T02:33:53.124Z,13
2019-01-27T02:43:52.330Z,13.2
2019-01-27T02:53:51.539Z,13.1
2019-01-27T03:03:50.746Z,12.9
2019-01-27T03:13:49.969Z,12.9
2019-01-27T03:23:49.160Z,13.1
2019-01-27T03:33:48.367Z,12.9
2019-01-27T03:43:47.575Z,12.8
2019-01-27T03:53:46.784Z,12.9
2019-01-27T04:03:45.991Z,12.7
2019-01-27T04:13:45.193Z,13.1
2019-01-27T04:23:44.399Z,13.1
2019-01-27T04:33:43.606Z,12.4
2019-01-27T04:43:42.812Z,12.9
2019-01-27T04:53:42.016Z,13.2
2019-01-27T05:03:41.223Z,12.4
2019-01-27T05:13:40.428Z,12.5
2019-01-27T05:23:39.633Z,13.1
2019-01-27T05:33:38.840Z,12.8
2019-01-27T05:43:38.043Z,12.9
2019-01-27T05:53:37.248Z,12.6
2019-01-27T06:03:36.455Z,13.1
2019-01-27T06:13:35.661Z,12.9
2019-01-27T06:23:34.864Z,13
2019-01-27T06:33:34.075Z,13.1
2019-01-27T06:43:33.275Z,12.7
2019-01-27T06:53:32.480Z,12.9
2019-01-27T07:03:31.687Z,12.6
2019-01-27T07:13:30.898Z,13.1
2019-01-27T07:23:30.107Z,14.1
2019-01-27T07:33:29.314Z,13.8
2019-01-27T07:43:28.524Z,14.1
2019-01-27T07:53:27.742Z,13.9
2019-01-27T08:03:26.944Z,14.1
2019-01-27T08:13:26.154Z,14.5
2019-01-27T08:23:25.364Z,14.4
2019-01-27T08:33:24.578Z,14.3
2019-01-27T08:43:23.788Z,13.9
2019-01-27T08:53:22.994Z,14.6
2019-01-27T09:03:22.205Z,14.4
2019-01-27T09:13:21.417Z,14.4
2019-01-27T09:23:20.630Z,14.4
2019-01-27T09:33:19.890Z,14.7
2019-01-27T09:43:19.055Z,14
2019-01-27T09:53:18.269Z,14.5
2019-01-27T10:03:17.478Z,14.1
2019-01-27T10:13:16.701Z,14.8
2019-01-27T10:23:15.908Z,14.1
2019-01-27T10:33:15.126Z,14.4
2019-01-27T10:43:14.346Z,14.1
2019-01-27T10:53:13.564Z,14.4
2019-01-27T11:03:12.778Z,14
2019-01-27T11:13:11.993Z,14.5
2019-01-27T11:23:11.207Z,14.4
2019-01-27T11:33:10.424Z,14.7
2019-01-27T11:43:09.641Z,13.9
2019-01-27T11:53:08.910Z,14.4
2019-01-27T12:03:08.073Z,14.1
2019-01-27T12:13:07.291Z,13.9
2019-01-27T12:23:06.505Z,13.9
2019-01-27T12:33:05.718Z,14.4
2019-01-27T12:43:04.937Z,14.2
2019-01-27T12:53:04.153Z,14.5
2019-01-27T13:03:03.368Z,13.8
2019-01-27T13:13:02.579Z,13.6
2019-01-27T13:23:01.790Z,13
2019-01-27T13:33:03.227Z,12.9
2019-01-27T13:43:00.209Z,12.7
2019-01-27T13:52:59.426Z,13.5
2019-01-27T14:02:58.626Z,12.9
2019-01-27T14:12:57.834Z,13
2019-01-27T14:22:57.048Z,12.9
2019-01-27T14:32:56.249Z,13.2
2019-01-27T14:42:55.456Z,12.9
2019-01-27T14:52:54.663Z,12.8
2019-01-27T15:02:53.870Z,12.8
2019-01-27T15:12:53.087Z,12.9
2019-01-27T15:22:52.297Z,13.1
2019-01-27T15:32:51.513Z,12.7
2019-01-27T15:42:50.734Z,12.7
2019-01-27T15:52:49.947Z,12.7
2019-01-27T16:02:49.176Z,13.1
2019-01-27T16:12:48.393Z,13.2
2019-01-27T16:22:47.600Z,12.8
2019-01-27T16:32:46.818Z,12.7
2019-01-27T16:42:46.037Z,12.9
2019-01-27T16:52:45.254Z,13
2019-01-27T17:02:44.501Z,12.6
2019-01-27T17:12:43.690Z,12.5
2019-01-27T17:22:42.912Z,13.1
2019-01-27T17:32:42.127Z,12.8
2019-01-27T17:42:41.345Z,12.6
2019-01-27T17:52:40.565Z,12.7
2019-01-27T18:02:39.783Z,12.5
2019-01-27T18:22:38.446Z,13.1
2019-01-27T18:32:37.439Z,13.1
2019-01-27T18:42:37.214Z,12.8
2019-01-27T18:52:35.879Z,12.5
2019-01-27T19:02:35.129Z,13.2
2019-01-27T19:12:34.325Z,12.9
2019-01-27T19:22:33.591Z,12.5
2019-01-27T19:32:32.758Z,13.2
2019-01-27T19:42:31.973Z,13.2
2019-01-27T19:52:31.191Z,12.7
2019-01-27T20:02:30.409Z,13.1
2019-01-27T20:12:29.629Z,13.2
2019-01-27T20:22:28.853Z,13.1
2019-01-27T20:32:28.065Z,13
2019-01-27T20:42:27.282Z,12.9
2019-01-27T20:52:26.500Z,13.2
2019-01-27T21:02:25.714Z,13.1
2019-01-27T21:12:24.929Z,12.5
2019-01-27T21:22:24.145Z,13.1
2019-01-27T21:32:23.354Z,12.4
2019-01-27T21:42:22.568Z,12.4
2019-01-27T21:52:21.785Z,12.9
2019-01-27T22:02:21.084Z,12.7
2019-01-27T22:12:20.220Z,12.5
2019-01-27T22:22:19.550Z,12.4
2019-01-27T22:32:18.649Z,12.7
2019-01-27T22:42:17.862Z,13
2019-01-27T22:52:17.074Z,13.1
2019-01-27T23:02:16.285Z,12.6
2019-01-27T23:12:15.497Z,13
2019-01-27T23:22:14.708Z,13.1
2019-01-27T23:32:13.918Z,13.2
2019-01-27T23:42:13.129Z,12.7
2019-01-27T23:52:12.343Z,12.4
